Time;durP1;ratioP1;P1;durP2;ratioP2;P2;SDS_P1;SDS_P2;PMS_P1;PMS_P2;Temp;Humidity;BMP_temperature;BMP_pressure;BME280_temperature;BME280_humidity;BME280_pressure;Samples;Min_cycle;Max_cycle;Signal;HPM_P1;HPM_P2
2023/08/12 04:00:16;;;;;;;2.75;2.50;;;18.60;99.90;;;;;;5990875;23;20729;31
2023/08/12 04:02:43;;;;;;;2.10;2.10;;;18.60;99.90;;;;;;4867872;29;21035;-71
2023/08/12 04:05:10;;;;;;;1.93;1.93;;;18.60;99.90;;;;;;4871214;29;20500;-71
2023/08/12 04:07:37;;;;;;;2.20;2.20;;;18.60;99.90;;;;;;4875768;29;20456;-71
2023/08/12 04:10:04;;;;;;;2.03;2.03;;;18.60;99.90;;;;;;4873905;29;20484;-71
2023/08/12 04:12:30;;;;;;;3.00;2.77;;;18.60;99.90;;;;;;4875266;29;21037;-71
2023/08/12 04:14:57;;;;;;;2.77;2.67;;;18.60;99.90;;;;;;4877213;29;20464;-71
2023/08/12 04:17:25;;;;;;;1.80;1.80;;;18.60;99.90;;;;;;4876489;29;20476;-70
2023/08/12 04:19:52;;;;;;;2.10;2.10;;;18.70;99.90;;;;;;4874480;29;20953;-70
2023/08/12 04:22:19;;;;;;;2.03;2.03;;;18.70;99.90;;;;;;4859459;29;20553;-72
2023/08/12 04:24:45;;;;;;;2.23;2.17;;;18.70;99.90;;;;;;4873506;29;20860;-71
2023/08/12 04:27:12;;;;;;;2.97;2.53;;;18.70;99.90;;;;;;4877537;29;20461;-71
2023/08/12 04:29:39;;;;;;;2.70;2.70;;;18.70;99.90;;;;;;4876794;29;20564;-71
2023/08/12 04:32:06;;;;;;;3.20;2.43;;;18.70;99.90;;;;;;4878533;29;20492;-71
2023/08/12 04:34:34;;;;;;;2.53;2.50;;;18.70;99.90;;;;;;4878167;29;20456;-72
2023/08/12 04:37:01;;;;;;;2.70;2.60;;;18.70;99.90;;;;;;4875775;29;20472;-71
2023/08/12 04:39:27;;;;;;;2.93;2.60;;;18.70;99.90;;;;;;4878136;29;20457;-71
2023/08/12 04:41:54;;;;;;;2.70;2.60;;;18.70;99.90;;;;;;4878468;29;20495;-70
2023/08/12 04:44:21;;;;;;;2.60;2.60;;;18.70;99.90;;;;;;4875312;29;20503;-71
2023/08/12 04:46:48;;;;;;;2.47;2.00;;;18.80;99.90;;;;;;4877037;29;20484;-71
2023/08/12 04:49:14;;;;;;;2.67;1.97;;;18.70;99.90;;;;;;4878170;29;20500;-70
2023/08/12 04:51:42;;;;;;;2.30;2.30;;;18.70;99.90;;;;;;4877605;29;20511;-71
2023/08/12 04:54:09;;;;;;;2.87;2.77;;;18.80;99.90;;;;;;4872522;29;20480;-71
2023/08/12 04:56:36;;;;;;;2.53;2.53;;;18.80;99.90;;;;;;4872315;29;20480;-70
2023/08/12 04:59:03;;;;;;;2.77;2.50;;;18.80;99.90;;;;;;4877257;29;20816;-70
2023/08/12 05:01:30;;;;;;;8.03;2.67;;;18.90;99.90;;;;;;4875915;29;20878;-71
2023/08/12 05:03:56;;;;;;;2.70;2.60;;;19.00;99.90;;;;;;4877077;29;20825;-70
2023/08/12 05:06:24;;;;;;;1.90;1.90;;;19.00;99.90;;;;;;4870849;29;20834;-70
2023/08/12 05:08:52;;;;;;;4.70;2.57;;;19.10;99.90;;;;;;4876159;29;20476;-70
2023/08/12 05:11:18;;;;;;;2.50;2.40;;;19.20;99.90;;;;;;4877750;29;20485;-70
2023/08/12 05:13:45;;;;;;;2.63;2.53;;;19.20;99.90;;;;;;4877988;29;20466;-70
2023/08/12 05:16:12;;;;;;;4.77;2.57;;;19.30;99.90;;;;;;4875920;29;20471;-72
2023/08/12 05:18:38;;;;;;;2.47;2.37;;;19.30;99.90;;;;;;4877805;29;20465;-71
2023/08/12 05:21:05;;;;;;;2.20;2.10;;;19.30;99.90;;;;;;4877094;29;21039;-70
2023/08/12 05:23:32;;;;;;;2.77;2.57;;;19.30;99.90;;;;;;4875009;29;21151;-70
2023/08/12 05:26:00;;;;;;;3.33;2.70;;;19.30;99.90;;;;;;4876293;29;20501;-71
2023/08/12 05:28:26;;;;;;;2.43;2.30;;;19.30;99.90;;;;;;4877410;29;20461;-70
2023/08/12 05:30:54;;;;;;;2.97;2.40;;;19.30;99.90;;;;;;4877290;29;20497;-71
2023/08/12 05:33:21;;;;;;;2.40;2.33;;;19.30;99.90;;;;;;4876537;29;20482;-71
2023/08/12 05:35:48;;;;;;;2.53;2.53;;;19.30;99.90;;;;;;4875981;29;20485;-71
2023/08/12 05:38:15;;;;;;;2.93;2.80;;;19.30;99.90;;;;;;4875157;29;20539;-71
2023/08/12 05:40:42;;;;;;;2.70;2.60;;;19.30;99.90;;;;;;4877390;29;20482;-70
2023/08/12 05:43:10;;;;;;;4.00;2.57;;;19.30;99.90;;;;;;4877091;29;20814;-71
2023/08/12 05:45:37;;;;;;;5.43;2.87;;;19.30;99.90;;;;;;4876490;29;20507;-71
2023/08/12 05:48:04;;;;;;;2.83;2.73;;;19.30;99.90;;;;;;4877337;29;20467;-71
2023/08/12 05:50:31;;;;;;;2.77;2.67;;;19.30;99.90;;;;;;4877498;29;20473;-71
2023/08/12 05:52:57;;;;;;;2.70;2.60;;;19.40;99.90;;;;;;4873741;29;20499;-70
2023/08/12 05:55:24;;;;;;;5.73;2.73;;;19.40;99.90;;;;;;4875876;29;20481;-70
2023/08/12 05:57:51;;;;;;;2.57;2.30;;;19.50;99.90;;;;;;4876328;29;20461;-72
2023/08/12 06:00:19;;;;;;;2.40;2.40;;;19.50;99.90;;;;;;4874217;29;20467;-71
2023/08/12 06:02:45;;;;;;;2.87;2.67;;;19.60;99.90;;;;;;4875644;29;20471;-70
2023/08/12 06:05:12;;;;;;;2.67;2.57;;;19.60;99.90;;;;;;4874477;29;20492;-71
2023/08/12 06:07:39;;;;;;;3.30;3.10;;;19.70;99.90;;;;;;4873578;29;20557;-71
2023/08/12 06:10:06;;;;;;;2.00;1.90;;;19.80;99.90;;;;;;4872459;29;20502;-71
2023/08/12 06:12:33;;;;;;;2.77;2.67;;;19.80;99.90;;;;;;4875084;29;20499;-71
2023/08/12 06:15:01;;;;;;;7.37;2.80;;;19.90;99.90;;;;;;4875218;29;20468;-70
2023/08/12 06:17:29;;;;;;;3.20;3.03;;;20.10;99.90;;;;;;4875874;29;20816;-71
2023/08/12 06:19:56;;;;;;;2.87;2.67;;;20.20;99.90;;;;;;4874892;29;20480;-71
2023/08/12 06:22:23;;;;;;;4.97;3.07;;;20.40;99.90;;;;;;4872603;29;20487;-71
2023/08/12 06:24:50;;;;;;;3.30;3.10;;;20.50;99.90;;;;;;4874241;29;20492;-71
2023/08/12 06:27:16;;;;;;;2.37;2.30;;;20.50;99.90;;;;;;4874120;29;20990;-71
2023/08/12 06:29:43;;;;;;;2.80;2.70;;;20.60;99.90;;;;;;4873894;29;20474;-70
2023/08/12 06:32:12;;;;;;;3.27;3.17;;;20.60;99.90;;;;;;4875248;29;20595;-71
2023/08/12 06:34:40;;;;;;;2.73;2.57;;;20.70;99.90;;;;;;4875583;29;20484;-72
2023/08/12 06:37:07;;;;;;;2.47;2.37;;;20.80;99.90;;;;;;4881887;29;20823;-70
2023/08/12 06:39:34;;;;;;;3.50;3.40;;;20.90;99.90;;;;;;4880994;29;20565;-71
2023/08/12 06:42:00;;;;;;;3.17;3.03;;;21.00;99.90;;;;;;4882392;29;20970;-71
2023/08/12 06:44:27;;;;;;;2.63;2.53;;;21.10;99.90;;;;;;4880553;29;20477;-70
2023/08/12 06:46:54;;;;;;;2.60;2.50;;;21.20;99.90;;;;;;4880466;29;20860;-70
2023/08/12 06:49:20;;;;;;;2.90;2.80;;;21.30;99.90;;;;;;4881261;29;20986;-71
2023/08/12 06:51:48;;;;;;;3.00;2.90;;;21.30;99.90;;;;;;4881421;29;20856;-71
2023/08/12 06:54:15;;;;;;;2.70;2.60;;;21.40;99.90;;;;;;4881758;29;20493;-71
2023/08/12 06:56:41;;;;;;;3.27;3.10;;;21.40;99.90;;;;;;4881876;29;20477;-70
2023/08/12 06:59:08;;;;;;;3.20;3.10;;;21.50;99.90;;;;;;4882887;29;20456;-72
2023/08/12 07:01:35;;;;;;;2.97;2.77;;;21.50;99.90;;;;;;4882360;29;20508;-72
2023/08/12 07:04:02;;;;;;;2.90;2.90;;;21.60;99.90;;;;;;4881492;29;20469;-71
2023/08/12 07:06:28;;;;;;;3.67;3.57;;;21.70;99.90;;;;;;4873446;29;21006;-72
2023/08/12 07:08:56;;;;;;;3.07;2.97;;;21.70;99.90;;;;;;4877533;29;20478;-72
2023/08/12 07:11:23;;;;;;;3.53;3.43;;;21.90;99.90;;;;;;4872309;29;20497;-71
2023/08/12 07:13:50;;;;;;;3.23;3.13;;;22.00;99.90;;;;;;4882451;29;20474;-73
2023/08/12 07:16:17;;;;;;;3.10;3.00;;;22.00;99.90;;;;;;4879063;29;20569;-71
2023/08/12 07:18:43;;;;;;;3.10;3.10;;;22.10;99.90;;;;;;4881489;29;20468;-72
2023/08/12 07:21:10;;;;;;;4.60;4.20;;;22.10;99.90;;;;;;4881007;29;20510;-73
2023/08/12 07:23:37;;;;;;;3.07;2.97;;;22.20;99.90;;;;;;4877904;29;20478;-72
2023/08/12 07:26:05;;;;;;;3.20;3.10;;;22.20;99.90;;;;;;4878198;29;20552;-72
2023/08/12 07:28:32;;;;;;;4.53;3.10;;;22.10;99.90;;;;;;4881419;29;20472;-74
2023/08/12 07:31:01;;;;;;;3.87;3.67;;;22.20;99.90;;;;;;4882189;29;20493;-73
2023/08/12 07:33:27;;;;;;;3.97;3.77;;;22.20;99.90;;;;;;4880494;29;20472;-71
2023/08/12 07:35:54;;;;;;;3.57;3.47;;;22.20;99.90;;;;;;4880580;29;20483;-72
2023/08/12 07:38:21;;;;;;;3.50;3.40;;;22.20;99.90;;;;;;4879862;29;20931;-72
2023/08/12 07:40:49;;;;;;;3.80;3.70;;;22.20;99.90;;;;;;4881667;29;20534;-71
2023/08/12 07:43:17;;;;;;;4.10;4.00;;;22.30;99.90;;;;;;4882206;29;20601;-71
2023/08/12 07:45:44;;;;;;;3.73;3.63;;;22.30;99.90;;;;;;4881796;29;20491;-72
2023/08/12 07:48:11;;;;;;;3.50;3.40;;;22.30;99.90;;;;;;4875901;29;20480;-72
2023/08/12 07:50:37;;;;;;;3.40;3.07;;;22.40;99.90;;;;;;4879843;29;20574;-72
2023/08/12 07:53:04;;;;;;;4.30;3.90;;;22.40;99.90;;;;;;4878023;29;20476;-72
2023/08/12 07:55:31;;;;;;;4.10;3.77;;;22.40;99.90;;;;;;4879418;29;20470;-72
2023/08/12 07:57:58;;;;;;;3.83;3.73;;;22.40;99.90;;;;;;4876634;29;20967;-72
2023/08/12 08:00:26;;;;;;;4.30;4.20;;;22.40;99.90;;;;;;4871923;29;20947;-69
2023/08/12 08:02:52;;;;;;;4.50;4.10;;;22.40;99.90;;;;;;4872129;29;20542;-72
2023/08/12 08:05:19;;;;;;;3.47;3.40;;;22.40;99.90;;;;;;4871967;29;20476;-74
2023/08/12 08:07:46;;;;;;;4.23;4.13;;;22.40;99.90;;;;;;4875319;29;20526;-73
2023/08/12 08:10:12;;;;;;;3.90;3.80;;;22.40;99.90;;;;;;4878032;29;20483;-72
2023/08/12 08:12:39;;;;;;;4.10;3.93;;;22.40;99.90;;;;;;4878755;29;20833;-72
2023/08/12 08:15:07;;;;;;;4.30;4.00;;;22.30;99.90;;;;;;4875661;29;20586;-71
2023/08/12 08:17:35;;;;;;;4.00;3.87;;;22.30;99.90;;;;;;4871845;29;20539;-72
2023/08/12 08:20:02;;;;;;;4.53;4.23;;;22.20;99.90;;;;;;4872549;29;20482;-72
2023/08/12 08:22:29;;;;;;;5.37;4.10;;;22.30;99.90;;;;;;4877043;29;20965;-72
2023/08/12 08:24:56;;;;;;;4.57;4.37;;;22.30;99.90;;;;;;4876397;29;20479;-72
2023/08/12 08:27:23;;;;;;;4.13;4.03;;;22.40;99.90;;;;;;4878416;29;20493;-72
2023/08/12 08:29:50;;;;;;;4.90;4.63;;;22.40;99.90;;;;;;4876937;29;20482;-72
2023/08/12 08:32:17;;;;;;;4.97;4.47;;;22.50;99.90;;;;;;4878571;29;20600;-72
2023/08/12 08:34:45;;;;;;;4.90;4.60;;;22.50;99.90;;;;;;4877398;29;20527;-72
2023/08/12 08:37:11;;;;;;;4.00;3.80;;;22.50;99.90;;;;;;4877459;29;20478;-73
2023/08/12 08:39:38;;;;;;;5.20;4.90;;;22.50;99.90;;;;;;4876042;29;20474;-72
2023/08/12 08:42:06;;;;;;;4.70;4.50;;;22.60;99.90;;;;;;4877821;29;20483;-72
2023/08/12 08:44:34;;;;;;;4.93;4.43;;;22.60;99.90;;;;;;4876254;29;20641;-73
2023/08/12 08:47:03;;;;;;;5.47;5.00;;;22.60;99.90;;;;;;4879345;29;20494;-72
2023/08/12 08:49:31;;;;;;;4.60;4.27;;;22.60;99.90;;;;;;4875798;29;20490;-72
2023/08/12 08:52:00;;;;;;;4.83;4.60;;;22.70;99.90;;;;;;4876891;29;20879;-72
2023/08/12 08:54:27;;;;;;;5.83;5.07;;;22.80;99.90;;;;;;4876695;29;20955;-72
2023/08/12 08:56:55;;;;;;;4.10;3.93;;;22.90;99.90;;;;;;4876773;29;20479;-71
2023/08/12 08:59:22;;;;;;;5.23;4.50;;;22.90;99.90;;;;;;4875964;29;20492;-72
2023/08/12 09:01:52;;;;;;;5.40;4.90;;;23.00;99.90;;;;;;4877069;29;20995;-72
2023/08/12 09:04:22;;;;;;;4.90;4.70;;;23.20;99.90;;;;;;4875212;29;20537;-72
2023/08/12 09:06:50;;;;;;;5.30;4.90;;;23.50;99.90;;;;;;4872310;29;20500;-72
2023/08/12 09:09:21;;;;;;;4.70;4.40;;;23.70;99.90;;;;;;4871601;29;20487;-69
2023/08/12 09:11:48;;;;;;;4.60;4.30;;;23.70;99.90;;;;;;4874153;29;20505;-70
2023/08/12 09:14:15;;;;;;;4.23;4.00;;;23.80;99.90;;;;;;4875645;29;20478;-70
2023/08/12 09:16:42;;;;;;;5.47;5.20;;;23.90;99.90;;;;;;4877330;29;20482;-71
2023/08/12 09:19:09;;;;;;;4.00;3.80;;;23.90;99.90;;;;;;4876050;29;20482;-70
2023/08/12 09:21:35;;;;;;;4.17;4.00;;;23.90;99.90;;;;;;4876914;29;20480;-70
2023/08/12 09:24:04;;;;;;;4.17;3.97;;;23.90;99.90;;;;;;4870701;29;20505;-70
2023/08/12 09:26:32;;;;;;;4.77;4.47;;;23.80;99.90;;;;;;4876879;29;20494;-70
2023/08/12 09:29:00;;;;;;;4.30;4.10;;;23.80;99.90;;;;;;4875074;29;20477;-71
2023/08/12 09:31:28;;;;;;;5.50;5.17;;;23.80;99.90;;;;;;4878115;29;20491;-70
2023/08/12 09:33:58;;;;;;;4.40;4.20;;;23.80;99.90;;;;;;4876382;29;20981;-70
2023/08/12 09:36:28;;;;;;;3.73;3.60;;;23.80;99.90;;;;;;4873003;29;20978;-70
2023/08/12 09:38:54;;;;;;;4.97;4.57;;;23.80;99.90;;;;;;4876671;29;20906;-71
2023/08/12 09:41:23;;;;;;;4.87;4.33;;;23.90;99.90;;;;;;4877285;29;20506;-70
2023/08/12 09:43:52;;;;;;;4.63;4.30;;;24.00;99.90;;;;;;4877404;29;20465;-70
2023/08/12 09:46:21;;;;;;;4.30;4.10;;;24.00;99.90;;;;;;4876058;29;21076;-70
2023/08/12 09:48:49;;;;;;;6.10;4.43;;;24.00;99.90;;;;;;4874589;29;20474;-70
2023/08/12 09:51:17;;;;;;;3.90;3.70;;;24.00;99.90;;;;;;4875731;29;20868;-69
2023/08/12 09:53:43;;;;;;;4.60;4.40;;;24.10;99.90;;;;;;4875528;29;20920;-70
2023/08/12 09:56:12;;;;;;;4.50;4.20;;;24.20;99.90;;;;;;4876713;29;20623;-70
2023/08/12 09:58:43;;;;;;;4.40;4.20;;;24.20;99.90;;;;;;4874636;29;20486;-70
2023/08/12 10:01:13;;;;;;;4.03;3.83;;;24.30;99.90;;;;;;4876487;29;20498;-70
2023/08/12 10:03:41;;;;;;;5.27;4.87;;;24.30;99.90;;;;;;4876784;29;20469;-70
2023/08/12 10:06:08;;;;;;;5.60;5.10;;;24.40;99.90;;;;;;4869465;29;20498;-71
2023/08/12 10:08:36;;;;;;;5.60;5.10;;;24.50;99.90;;;;;;4875572;29;21012;-70
2023/08/12 10:11:04;;;;;;;4.67;4.40;;;24.50;99.90;;;;;;4873982;29;20496;-70
2023/08/12 10:13:31;;;;;;;4.13;3.83;;;24.60;99.90;;;;;;4876578;29;20466;-70
2023/08/12 10:15:57;;;;;;;5.03;4.10;;;24.70;99.90;;;;;;4875222;29;20491;-70
2023/08/12 10:18:28;;;;;;;3.50;3.40;;;24.80;99.90;;;;;;4876647;29;20785;-71
2023/08/12 10:20:57;;;;;;;5.10;4.83;;;24.80;99.90;;;;;;4875691;29;20499;-70
2023/08/12 10:23:25;;;;;;;5.10;4.80;;;24.80;99.90;;;;;;4873340;29;20481;-71
2023/08/12 10:25:54;;;;;;;4.53;4.23;;;24.70;99.90;;;;;;4875424;29;20485;-72
2023/08/12 10:28:23;;;;;;;4.23;3.93;;;24.60;99.90;;;;;;4876768;29;20461;-72
2023/08/12 10:30:50;;;;;;;4.53;4.17;;;24.50;99.90;;;;;;4870178;29;20525;-71
2023/08/12 10:33:18;;;;;;;3.77;3.63;;;24.30;99.90;;;;;;4875602;29;20471;-71
2023/08/12 10:35:48;;;;;;;4.30;3.90;;;24.30;99.90;;;;;;4874267;29;20477;-72
2023/08/12 10:38:17;;;;;;;4.40;4.20;;;24.50;99.90;;;;;;4871644;29;20934;-71
2023/08/12 10:40:45;;;;;;;3.80;3.60;;;24.60;99.90;;;;;;4875795;29;20489;-71
2023/08/12 10:43:13;;;;;;;4.37;4.07;;;24.70;99.90;;;;;;4875998;29;20542;-72
2023/08/12 10:45:44;;;;;;;4.47;4.07;;;24.80;99.90;;;;;;4873611;29;20499;-71
2023/08/12 10:48:18;;;;;;;4.47;4.20;;;24.80;99.90;;;;;;4875726;29;20518;-72
2023/08/12 10:50:48;;;;;;;4.30;4.07;;;24.60;99.90;;;;;;4873404;29;20521;-71
2023/08/12 10:53:29;;;;;;;4.40;4.00;;;24.30;99.90;;;;;;4872869;29;20789;-71
2023/08/12 10:55:58;;;;;;;4.20;4.00;;;24.00;99.90;;;;;;4874896;29;20478;-71
2023/08/12 10:58:29;;;;;;;4.77;4.40;;;23.80;99.90;;;;;;4874709;29;20508;-71
2023/08/12 11:00:57;;;;;;;4.77;4.57;;;23.60;99.90;;;;;;4876147;29;21225;-72
2023/08/12 11:03:24;;;;;;;7.50;4.43;;;23.50;99.90;;;;;;4873301;29;20483;-71
2023/08/12 11:05:55;;;;;;;3.53;3.40;;;23.40;99.90;;;;;;4869838;29;20480;-71
2023/08/12 11:08:26;;;;;;;4.90;3.90;;;23.50;99.90;;;;;;4874198;29;20527;-72
2023/08/12 11:10:55;;;;;;;4.40;4.20;;;23.60;99.90;;;;;;4875730;29;20523;-72
2023/08/12 11:13:22;;;;;;;4.27;3.97;;;23.70;99.90;;;;;;4874657;29;20583;-72
2023/08/12 11:15:49;;;;;;;4.60;4.40;;;23.70;99.90;;;;;;4873943;29;20480;-70
2023/08/12 11:18:18;;;;;;;5.17;4.77;;;23.80;99.90;;;;;;4875377;29;20914;-72
2023/08/12 11:20:46;;;;;;;3.93;3.83;;;23.80;99.90;;;;;;4876071;29;20494;-71
2023/08/12 11:23:14;;;;;;;4.80;4.50;;;23.80;99.90;;;;;;4876989;29;20469;-72
2023/08/12 11:25:43;;;;;;;4.20;4.00;;;23.90;99.90;;;;;;4877873;29;20526;-72
2023/08/12 11:28:10;;;;;;;5.20;4.90;;;23.90;99.90;;;;;;4879182;29;20498;-72
2023/08/12 11:30:37;;;;;;;4.53;4.33;;;23.90;99.90;;;;;;4879500;29;20480;-71
2023/08/12 11:33:05;;;;;;;4.63;4.33;;;23.90;99.90;;;;;;4878218;29;20797;-72
2023/08/12 11:35:31;;;;;;;4.10;4.00;;;24.00;99.90;;;;;;4876974;29;20491;-70
2023/08/12 11:37:59;;;;;;;4.40;4.20;;;23.90;99.90;;;;;;4877346;29;20475;-72
2023/08/12 11:40:28;;;;;;;4.73;4.33;;;24.00;99.90;;;;;;4879219;29;20919;-72
2023/08/12 11:42:56;;;;;;;5.43;5.13;;;24.00;99.90;;;;;;4878226;29;20496;-71
2023/08/12 11:45:25;;;;;;;3.90;3.80;;;24.10;99.90;;;;;;4878736;29;20478;-73
2023/08/12 11:47:53;;;;;;;4.97;4.60;;;24.10;99.90;;;;;;4879243;29;20520;-72
2023/08/12 11:50:21;;;;;;;4.83;4.53;;;24.10;99.90;;;;;;4878272;29;20469;-72
2023/08/12 11:52:48;;;;;;;4.30;3.90;;;24.10;99.90;;;;;;4876471;29;20813;-71
2023/08/12 11:55:16;;;;;;;3.80;3.70;;;24.10;99.90;;;;;;4877832;29;20474;-71
2023/08/12 11:57:44;;;;;;;4.20;4.00;;;24.00;99.90;;;;;;4878020;29;20467;-71
2023/08/12 12:00:14;;;;;;;4.40;4.10;;;24.20;99.90;;;;;;4878190;29;20486;-72
2023/08/12 12:02:42;;;;;;;4.60;4.30;;;24.20;99.90;;;;;;4877400;29;20515;-71
2023/08/12 12:05:12;;;;;;;4.50;4.30;;;24.20;99.90;;;;;;4875605;29;20471;-71
2023/08/12 12:07:39;;;;;;;3.70;3.50;;;24.10;99.90;;;;;;4874063;29;20493;-71
2023/08/12 12:10:06;;;;;;;3.80;3.60;;;24.00;99.90;;;;;;4877053;29;20558;-71
2023/08/12 12:12:34;;;;;;;3.90;3.73;;;24.10;99.90;;;;;;4876095;29;20493;-71
2023/08/12 12:15:03;;;;;;;4.70;4.40;;;24.20;99.90;;;;;;4879343;29;20478;-72
2023/08/12 12:17:30;;;;;;;4.53;4.23;;;24.40;99.90;;;;;;4877157;29;20471;-71
2023/08/12 12:19:58;;;;;;;5.10;4.80;;;24.50;99.90;;;;;;4877137;29;20964;-71
2023/08/12 12:22:29;;;;;;;5.30;5.00;;;24.60;99.90;;;;;;4877134;29;20503;-71
2023/08/12 12:24:59;;;;;;;8.13;5.00;;;24.70;99.90;;;;;;4877395;29;20482;-71
2023/08/12 12:27:26;;;;;;;5.17;4.77;;;24.70;99.90;;;;;;4878105;29;20863;-71
2023/08/12 12:29:52;;;;;;;4.60;4.40;;;24.70;99.90;;;;;;4878710;29;20875;-70
2023/08/12 12:32:21;;;;;;;5.23;4.80;;;24.60;99.90;;;;;;4878105;29;20489;-71
2023/08/12 12:34:48;;;;;;;4.80;4.50;;;24.70;99.90;;;;;;4874640;29;20467;-71
2023/08/12 12:37:15;;;;;;;5.97;5.47;;;24.80;99.90;;;;;;4877599;29;20468;-71
2023/08/12 12:39:42;;;;;;;4.80;4.50;;;25.00;99.90;;;;;;4876927;29;20479;-72
2023/08/12 12:42:09;;;;;;;5.23;4.93;;;25.10;99.90;;;;;;4878254;29;20978;-72
2023/08/12 12:44:35;;;;;;;4.77;4.53;;;25.20;99.90;;;;;;4875374;29;20484;-72
2023/08/12 12:47:03;;;;;;;5.00;4.80;;;25.40;99.90;;;;;;4877036;29;20515;-71
2023/08/12 12:49:31;;;;;;;4.83;4.60;;;25.40;99.90;;;;;;4870887;29;20972;-71
2023/08/12 12:51:58;;;;;;;4.23;4.13;;;25.60;99.90;;;;;;4876031;29;20502;-71
2023/08/12 12:54:25;;;;;;;5.30;4.90;;;25.60;99.90;;;;;;4875480;29;20481;-71
2023/08/12 12:56:51;;;;;;;5.50;5.30;;;25.50;99.90;;;;;;4875892;29;20470;-71
2023/08/12 12:59:18;;;;;;;5.23;4.77;;;25.40;99.90;;;;;;4876927;29;20490;-71
2023/08/12 13:01:45;;;;;;;4.80;3.57;;;25.60;99.90;;;;;;4875629;29;20510;-71
2023/08/12 13:04:12;;;;;;;5.57;5.17;;;25.70;99.90;;;;;;4875723;29;20495;-71
2023/08/12 13:06:40;;;;;;;3.63;3.53;;;25.80;99.90;;;;;;4874633;29;20807;-72
2023/08/12 13:09:07;;;;;;;4.07;3.80;;;25.50;99.90;;;;;;4874556;29;20862;-70
2023/08/12 13:11:35;;;;;;;4.60;4.30;;;25.50;99.90;;;;;;4876508;29;20566;-70
2023/08/12 13:14:02;;;;;;;3.90;3.70;;;25.30;99.90;;;;;;4876260;29;20770;-71
2023/08/12 13:16:29;;;;;;;3.63;3.50;;;25.20;99.90;;;;;;4873042;29;20477;-70
2023/08/12 13:18:58;;;;;;;4.10;3.50;;;25.20;99.90;;;;;;4872037;29;20473;-71
2023/08/12 13:21:24;;;;;;;3.73;3.63;;;25.30;99.90;;;;;;4869409;29;20568;-71
2023/08/12 13:23:53;;;;;;;4.10;3.90;;;25.20;99.90;;;;;;4873177;29;20472;-70
2023/08/12 13:26:20;;;;;;;3.90;3.70;;;25.20;99.90;;;;;;4876324;29;20489;-70
2023/08/12 13:28:47;;;;;;;3.87;3.77;;;25.10;99.90;;;;;;4876819;29;20514;-71
2023/08/12 13:31:14;;;;;;;3.63;3.53;;;25.00;99.90;;;;;;4874589;29;20502;-70
2023/08/12 13:33:41;;;;;;;4.03;3.90;;;24.90;99.90;;;;;;4876272;29;20485;-70
2023/08/12 13:36:08;;;;;;;3.97;3.63;;;24.90;99.90;;;;;;4876371;29;21322;-71
2023/08/12 13:38:34;;;;;;;4.33;4.00;;;24.80;99.90;;;;;;4872226;29;20478;-71
2023/08/12 13:41:02;;;;;;;3.67;3.43;;;24.80;99.90;;;;;;4877008;29;20863;-70
2023/08/12 13:43:30;;;;;;;3.77;3.63;;;24.70;99.90;;;;;;4871358;29;20482;-71
2023/08/12 13:45:56;;;;;;;4.63;3.80;;;24.70;99.90;;;;;;4873789;29;20534;-71
2023/08/12 13:48:23;;;;;;;4.03;3.90;;;24.70;99.90;;;;;;4876673;29;20492;-70
2023/08/12 13:50:52;;;;;;;3.73;3.47;;;24.60;99.90;;;;;;4876679;29;20496;-71
2023/08/12 13:53:19;;;;;;;3.40;3.30;;;24.60;99.90;;;;;;4875443;29;21028;-71
2023/08/12 13:55:46;;;;;;;3.60;3.30;;;24.60;99.90;;;;;;4876874;29;20461;-71
2023/08/12 13:58:14;;;;;;;4.13;3.90;;;24.60;99.90;;;;;;4876967;29;20472;-71
2023/08/12 14:00:40;;;;;;;3.67;3.57;;;24.50;99.90;;;;;;4876844;29;21023;-72
2023/08/12 14:03:07;;;;;;;4.23;3.30;;;24.50;99.90;;;;;;4875380;29;20848;-70
2023/08/12 14:05:34;;;;;;;3.43;3.33;;;24.40;99.90;;;;;;4876221;29;20504;-71
2023/08/12 14:08:00;;;;;;;4.20;3.90;;;24.30;99.90;;;;;;4874499;29;20500;-71
2023/08/12 14:10:27;;;;;;;3.47;3.20;;;24.30;99.90;;;;;;4876858;29;20461;-70
2023/08/12 14:12:54;;;;;;;4.07;3.87;;;24.30;99.90;;;;;;4875692;29;20485;-69
2023/08/12 14:15:22;;;;;;;3.03;3.03;;;24.30;99.90;;;;;;4876382;29;20472;-69
2023/08/12 14:17:49;;;;;;;4.13;3.93;;;24.30;99.90;;;;;;4874613;29;20472;-70
2023/08/12 14:20:16;;;;;;;3.70;3.50;;;24.20;99.90;;;;;;4874955;29;20482;-70
2023/08/12 14:22:43;;;;;;;2.97;2.87;;;24.20;99.90;;;;;;4871547;29;20564;-69
2023/08/12 14:25:10;;;;;;;4.00;3.70;;;24.20;99.90;;;;;;4873887;29;20520;-70
2023/08/12 14:27:37;;;;;;;3.43;3.33;;;24.10;99.90;;;;;;4876436;29;20580;-69
2023/08/12 14:30:05;;;;;;;3.83;3.67;;;24.10;99.90;;;;;;4876533;29;20954;-70
2023/08/12 14:32:33;;;;;;;3.90;3.70;;;23.90;99.90;;;;;;4875174;29;21309;-70
2023/08/12 14:34:59;;;;;;;3.63;3.43;;;23.50;99.90;;;;;;4876280;29;20508;-70
2023/08/12 14:37:27;;;;;;;3.83;3.53;;;23.00;99.90;;;;;;4871441;29;20947;-68
2023/08/12 14:39:54;;;;;;;4.80;4.50;;;22.70;99.90;;;;;;4873125;29;20856;-69
2023/08/12 14:42:21;;;;;;;4.23;4.03;;;22.60;99.90;;;;;;4873929;29;20861;-70
2023/08/12 14:44:47;;;;;;;4.00;3.70;;;22.40;99.90;;;;;;4875073;29;20537;-70
2023/08/12 14:47:14;;;;;;;5.43;5.13;;;22.40;99.90;;;;;;4874544;29;20487;-70
2023/08/12 14:49:42;;;;;;;6.27;5.80;;;22.40;99.90;;;;;;4875511;29;20480;-70
2023/08/12 14:52:16;;;;;;;5.50;5.20;;;22.20;99.90;;;;;;4871651;29;20504;-70
2023/08/12 14:54:43;;;;;;;6.47;5.87;;;22.20;99.90;;;;;;4870805;29;20472;-70
2023/08/12 14:57:10;;;;;;;6.57;6.10;;;22.20;99.90;;;;;;4878377;29;20467;-71
2023/08/12 14:59:37;;;;;;;7.30;6.60;;;22.20;99.90;;;;;;4871964;29;20550;-69
2023/08/12 15:02:04;;;;;;;5.77;5.23;;;22.20;99.90;;;;;;4875502;29;20500;-70
2023/08/12 15:04:31;;;;;;;6.00;5.30;;;22.30;99.90;;;;;;4872073;29;20469;-71
2023/08/12 15:06:59;;;;;;;4.70;4.50;;;22.40;99.90;;;;;;4877237;29;21110;-70
2023/08/12 15:09:25;;;;;;;4.93;4.63;;;22.50;99.90;;;;;;4880050;29;20489;-68
2023/08/12 15:11:52;;;;;;;6.07;5.57;;;22.60;99.90;;;;;;4876970;29;20508;-69
2023/08/12 15:14:19;;;;;;;4.97;4.67;;;22.60;99.90;;;;;;4877180;29;20492;-70
2023/08/12 15:16:46;;;;;;;4.80;4.50;;;22.80;99.90;;;;;;4879537;29;20465;-69
2023/08/12 15:19:12;;;;;;;4.90;4.70;;;22.90;99.90;;;;;;4874089;29;20506;-69
2023/08/12 15:21:39;;;;;;;5.00;4.80;;;23.00;99.90;;;;;;4877534;29;20867;-70
2023/08/12 15:24:08;;;;;;;4.83;4.37;;;23.10;99.90;;;;;;4877158;29;20472;-70
2023/08/12 15:26:34;;;;;;;4.20;3.90;;;23.30;99.90;;;;;;4875671;29;20465;-69
2023/08/12 15:29:01;;;;;;;3.47;3.27;;;23.30;99.90;;;;;;4874144;29;20499;-69
2023/08/12 15:31:28;;;;;;;3.20;3.17;;;23.40;99.90;;;;;;4879431;29;20487;-69
2023/08/12 15:33:55;;;;;;;3.50;3.40;;;23.40;99.90;;;;;;4877989;29;20478;-69
2023/08/12 15:36:21;;;;;;;3.33;3.13;;;23.40;99.90;;;;;;4879139;29;20474;-70
2023/08/12 15:38:48;;;;;;;4.60;4.40;;;23.40;99.90;;;;;;4878471;29;20987;-69
2023/08/12 15:41:17;;;;;;;3.70;3.50;;;23.40;99.90;;;;;;4878447;29;21037;-70
2023/08/12 15:43:44;;;;;;;3.27;3.23;;;23.40;99.90;;;;;;4879459;29;20553;-70
2023/08/12 15:46:11;;;;;;;3.00;2.87;;;23.40;99.90;;;;;;4878170;29;20475;-69
2023/08/12 15:48:38;;;;;;;3.33;3.13;;;23.30;99.90;;;;;;4871846;29;20498;-70
2023/08/12 15:51:05;;;;;;;4.33;4.03;;;23.30;99.90;;;;;;4870227;29;20593;-71
2023/08/12 15:53:32;;;;;;;3.33;3.13;;;23.30;99.90;;;;;;4873778;29;20554;-70
2023/08/12 15:55:58;;;;;;;4.33;4.13;;;23.20;99.90;;;;;;4873319;29;20483;-71
2023/08/12 15:58:26;;;;;;;3.87;3.70;;;23.20;99.90;;;;;;4873973;29;20494;-69
2023/08/12 16:00:53;;;;;;;3.30;3.13;;;23.10;99.90;;;;;;4876834;29;21044;-70
2023/08/12 16:03:20;;;;;;;3.87;3.63;;;23.10;99.90;;;;;;4879097;29;20469;-70
2023/08/12 16:05:48;;;;;;;4.50;4.30;;;23.10;99.90;;;;;;4878224;29;20498;-70
2023/08/12 16:08:15;;;;;;;4.20;3.90;;;23.20;99.90;;;;;;4873468;29;20538;-70
2023/08/12 16:10:42;;;;;;;4.03;3.83;;;23.20;99.90;;;;;;4878114;29;20518;-69
2023/08/12 16:13:08;;;;;;;3.30;3.20;;;23.20;99.90;;;;;;4878515;29;20470;-70
2023/08/12 16:15:36;;;;;;;3.80;3.60;;;23.20;99.90;;;;;;4876642;29;20974;-70
2023/08/12 16:18:03;;;;;;;3.77;3.50;;;23.30;99.90;;;;;;4875327;29;20481;-72
2023/08/12 16:20:30;;;;;;;4.00;3.80;;;23.30;99.90;;;;;;4877997;29;20478;-70
2023/08/12 16:22:57;;;;;;;3.63;3.43;;;23.30;99.90;;;;;;4876742;29;20502;-70
2023/08/12 16:25:27;;;;;;;3.80;3.60;;;23.50;99.90;;;;;;4878011;29;20837;-70
2023/08/12 16:27:54;;;;;;;3.67;3.50;;;23.60;99.90;;;;;;4908380;23;20493;-69
2023/08/12 16:30:21;;;;;;;3.70;3.53;;;23.70;99.90;;;;;;4895798;29;20835;-68
2023/08/12 16:32:49;;;;;;;3.80;3.70;;;23.70;99.90;;;;;;4895771;29;20481;-68
2023/08/12 16:35:15;;;;;;;2.60;2.50;;;23.70;99.90;;;;;;4898310;29;20492;-68
2023/08/12 16:37:42;;;;;;;3.47;3.30;;;23.70;99.90;;;;;;4882471;29;20515;-68
2023/08/12 16:40:10;;;;;;;3.20;3.00;;;23.70;99.90;;;;;;4876447;29;20541;-69
2023/08/12 16:42:37;;;;;;;2.30;2.23;;;23.70;99.90;;;;;;4878504;29;21082;-68
2023/08/12 16:45:05;;;;;;;3.07;2.97;;;23.80;99.90;;;;;;4876676;29;20475;-68
2023/08/12 16:47:31;;;;;;;2.83;2.73;;;23.80;99.90;;;;;;4878946;29;20498;-68